sensor_id;sensor_type;location;lat;lon;timestamp;temperature;humidity
21676;DHT22;10999;51.332;9.458;2022-12-18T00:03:46;-7.90;92.50
21676;DHT22;10999;51.332;9.458;2022-12-18T00:06:14;-7.90;92.30
21676;DHT22;10999;51.332;9.458;2022-12-18T00:08:42;-8.00;92.00
21676;DHT22;10999;51.332;9.458;2022-12-18T00:11:12;-8.00;91.90
21676;DHT22;10999;51.332;9.458;2022-12-18T00:13:40;-8.00;91.90
21676;DHT22;10999;51.332;9.458;2022-12-18T00:16:11;-8.10;91.90
21676;DHT22;10999;51.332;9.458;2022-12-18T00:18:38;-8.10;91.70
21676;DHT22;10999;51.332;9.458;2022-12-18T00:21:08;-8.20;91.60
21676;DHT22;10999;51.332;9.458;2022-12-18T00:23:36;-8.20;91.60
21676;DHT22;10999;51.332;9.458;2022-12-18T00:26:33;-8.20;91.50
21676;DHT22;10999;51.332;9.458;2022-12-18T00:29:03;-8.20;91.50
21676;DHT22;10999;51.332;9.458;2022-12-18T00:31:31;-8.30;92.20
21676;DHT22;10999;51.332;9.458;2022-12-18T00:33:59;-8.30;91.50
21676;DHT22;10999;51.332;9.458;2022-12-18T00:36:28;-8.30;91.50
21676;DHT22;10999;51.332;9.458;2022-12-18T00:38:58;-8.30;91.40
21676;DHT22;10999;51.332;9.458;2022-12-18T00:41:25;-8.30;91.30
21676;DHT22;10999;51.332;9.458;2022-12-18T00:44:13;-8.30;91.30
21676;DHT22;10999;51.332;9.458;2022-12-18T00:46:41;-8.40;91.20
21676;DHT22;10999;51.332;9.458;2022-12-18T00:49:08;-8.40;91.20
21676;DHT22;10999;51.332;9.458;2022-12-18T00:51:35;-8.40;91.20
21676;DHT22;10999;51.332;9.458;2022-12-18T00:54:02;-8.50;91.20
21676;DHT22;10999;51.332;9.458;2022-12-18T00:56:28;-8.50;91.20
21676;DHT22;10999;51.332;9.458;2022-12-18T00:58:55;-8.50;91.10
21676;DHT22;10999;51.332;9.458;2022-12-18T01:01:22;-8.50;91.00
21676;DHT22;10999;51.332;9.458;2022-12-18T01:03:49;-8.50;90.90
21676;DHT22;10999;51.332;9.458;2022-12-18T01:06:16;-8.50;90.80
21676;DHT22;10999;51.332;9.458;2022-12-18T01:08:44;-8.50;90.70
21676;DHT22;10999;51.332;9.458;2022-12-18T01:11:15;-8.60;90.40
21676;DHT22;10999;51.332;9.458;2022-12-18T01:13:43;-8.60;90.20
21676;DHT22;10999;51.332;9.458;2022-12-18T01:16:15;-8.60;90.20
21676;DHT22;10999;51.332;9.458;2022-12-18T01:18:42;-8.70;90.80
21676;DHT22;10999;51.332;9.458;2022-12-18T01:21:11;-8.70;90.10
21676;DHT22;10999;51.332;9.458;2022-12-18T01:23:38;-8.70;90.00
21676;DHT22;10999;51.332;9.458;2022-12-18T01:26:11;-8.70;90.00
21676;DHT22;10999;51.332;9.458;2022-12-18T01:28:38;-8.70;90.00
21676;DHT22;10999;51.332;9.458;2022-12-18T01:31:18;-8.70;90.00
21676;DHT22;10999;51.332;9.458;2022-12-18T01:33:45;-8.70;90.10
21676;DHT22;10999;51.332;9.458;2022-12-18T01:36:18;-8.70;90.10
21676;DHT22;10999;51.332;9.458;2022-12-18T01:38:45;-8.70;90.30
21676;DHT22;10999;51.332;9.458;2022-12-18T01:41:12;-8.70;90.50
21676;DHT22;10999;51.332;9.458;2022-12-18T01:43:54;-8.70;90.60
21676;DHT22;10999;51.332;9.458;2022-12-18T01:46:24;-8.70;90.60
21676;DHT22;10999;51.332;9.458;2022-12-18T01:48:58;-8.80;90.40
21676;DHT22;10999;51.332;9.458;2022-12-18T01:51:27;-8.80;90.30
21676;DHT22;10999;51.332;9.458;2022-12-18T01:53:54;-8.80;90.30
21676;DHT22;10999;51.332;9.458;2022-12-18T01:56:21;-8.80;90.40
21676;DHT22;10999;51.332;9.458;2022-12-18T01:58:50;-8.80;90.60
21676;DHT22;10999;51.332;9.458;2022-12-18T02:01:20;-8.80;90.60
21676;DHT22;10999;51.332;9.458;2022-12-18T02:03:48;-8.90;90.50
21676;DHT22;10999;51.332;9.458;2022-12-18T02:09:00;-8.90;90.30
21676;DHT22;10999;51.332;9.458;2022-12-18T02:12:05;-9.00;90.20
21676;DHT22;10999;51.332;9.458;2022-12-18T02:15:03;-8.90;90.30
21676;DHT22;10999;51.332;9.458;2022-12-18T02:17:47;-8.90;90.30
21676;DHT22;10999;51.332;9.458;2022-12-18T02:20:17;-8.90;90.20
21676;DHT22;10999;51.332;9.458;2022-12-18T02:28:00;-8.90;90.00
21676;DHT22;10999;51.332;9.458;2022-12-18T02:30:31;-8.90;89.90
21676;DHT22;10999;51.332;9.458;2022-12-18T02:33:01;-8.90;89.90
21676;DHT22;10999;51.332;9.458;2022-12-18T02:35:31;-9.00;89.70
21676;DHT22;10999;51.332;9.458;2022-12-18T02:37:59;-9.00;89.60
21676;DHT22;10999;51.332;9.458;2022-12-18T02:40:27;-9.00;89.60
21676;DHT22;10999;51.332;9.458;2022-12-18T02:42:54;-9.00;89.60
21676;DHT22;10999;51.332;9.458;2022-12-18T02:45:21;-9.10;89.40
21676;DHT22;10999;51.332;9.458;2022-12-18T02:47:49;-9.10;89.30
21676;DHT22;10999;51.332;9.458;2022-12-18T02:50:26;-9.10;89.20
21676;DHT22;10999;51.332;9.458;2022-12-18T02:56:09;-9.20;89.80
21676;DHT22;10999;51.332;9.458;2022-12-18T03:01:58;-9.30;89.10
21676;DHT22;10999;51.332;9.458;2022-12-18T03:04:41;-9.30;89.00
21676;DHT22;10999;51.332;9.458;2022-12-18T03:07:16;-9.40;88.90
21676;DHT22;10999;51.332;9.458;2022-12-18T03:09:47;-9.40;88.80
21676;DHT22;10999;51.332;9.458;2022-12-18T03:12:27;-9.40;88.90
21676;DHT22;10999;51.332;9.458;2022-12-18T03:17:31;-9.40;88.80
21676;DHT22;10999;51.332;9.458;2022-12-18T03:20:04;-9.50;88.70
21676;DHT22;10999;51.332;9.458;2022-12-18T03:22:33;-9.50;88.80
21676;DHT22;10999;51.332;9.458;2022-12-18T03:25:04;-9.40;88.80
21676;DHT22;10999;51.332;9.458;2022-12-18T03:27:33;-9.50;88.90
21676;DHT22;10999;51.332;9.458;2022-12-18T03:30:05;-9.50;88.90
21676;DHT22;10999;51.332;9.458;2022-12-18T03:32:51;-9.50;88.80
21676;DHT22;10999;51.332;9.458;2022-12-18T03:35:30;-9.60;88.60
21676;DHT22;10999;51.332;9.458;2022-12-18T03:37:58;-9.60;88.40
21676;DHT22;10999;51.332;9.458;2022-12-18T03:47:11;-9.70;88.20
21676;DHT22;10999;51.332;9.458;2022-12-18T03:49:50;-9.70;88.00
21676;DHT22;10999;51.332;9.458;2022-12-18T03:52:27;-9.80;87.90
21676;DHT22;10999;51.332;9.458;2022-12-18T03:54:56;-9.80;87.90
21676;DHT22;10999;51.332;9.458;2022-12-18T03:57:26;-9.80;87.80
21676;DHT22;10999;51.332;9.458;2022-12-18T04:00:00;-9.80;87.70
21676;DHT22;10999;51.332;9.458;2022-12-18T04:02:29;-9.90;87.60
21676;DHT22;10999;51.332;9.458;2022-12-18T04:04:59;-9.80;87.60
21676;DHT22;10999;51.332;9.458;2022-12-18T04:07:27;-9.90;87.50
21676;DHT22;10999;51.332;9.458;2022-12-18T04:09:56;-10.00;87.20
21676;DHT22;10999;51.332;9.458;2022-12-18T04:12:25;-9.90;87.20
21676;DHT22;10999;51.332;9.458;2022-12-18T04:14:52;-10.00;87.10
21676;DHT22;10999;51.332;9.458;2022-12-18T04:17:19;-10.00;87.30
21676;DHT22;10999;51.332;9.458;2022-12-18T04:19:46;-10.00;87.30
21676;DHT22;10999;51.332;9.458;2022-12-18T04:22:12;-10.00;87.20
21676;DHT22;10999;51.332;9.458;2022-12-18T04:24:39;-10.00;87.10
21676;DHT22;10999;51.332;9.458;2022-12-18T04:27:06;-10.10;87.00
21676;DHT22;10999;51.332;9.458;2022-12-18T04:29:33;-10.10;87.00
21676;DHT22;10999;51.332;9.458;2022-12-18T04:32:00;-10.10;86.90
21676;DHT22;10999;51.332;9.458;2022-12-18T04:34:27;-10.10;87.00
21676;DHT22;10999;51.332;9.458;2022-12-18T04:36:53;-10.10;86.80
21676;DHT22;10999;51.332;9.458;2022-12-18T04:39:20;-10.20;86.70
21676;DHT22;10999;51.332;9.458;2022-12-18T04:41:47;-10.20;86.60
21676;DHT22;10999;51.332;9.458;2022-12-18T04:44:13;-10.20;86.50
21676;DHT22;10999;51.332;9.458;2022-12-18T04:46:40;-10.20;86.50
21676;DHT22;10999;51.332;9.458;2022-12-18T04:49:07;-10.20;86.40
21676;DHT22;10999;51.332;9.458;2022-12-18T04:51:34;-10.30;86.20
21676;DHT22;10999;51.332;9.458;2022-12-18T04:54:00;-10.30;86.10
21676;DHT22;10999;51.332;9.458;2022-12-18T04:56:27;-10.30;86.10
21676;DHT22;10999;51.332;9.458;2022-12-18T04:58:53;-10.40;85.80
21676;DHT22;10999;51.332;9.458;2022-12-18T05:01:20;-10.40;86.50
21676;DHT22;10999;51.332;9.458;2022-12-18T05:03:47;-10.40;85.70
21676;DHT22;10999;51.332;9.458;2022-12-18T05:06:14;-10.50;85.60
21676;DHT22;10999;51.332;9.458;2022-12-18T05:08:41;-10.50;85.40
21676;DHT22;10999;51.332;9.458;2022-12-18T05:11:13;-10.60;85.10
21676;DHT22;10999;51.332;9.458;2022-12-18T05:13:43;-10.50;85.10
21676;DHT22;10999;51.332;9.458;2022-12-18T05:16:10;-10.60;85.10
21676;DHT22;10999;51.332;9.458;2022-12-18T05:18:37;-10.60;84.90
21676;DHT22;10999;51.332;9.458;2022-12-18T05:21:04;-10.60;84.80
21676;DHT22;10999;51.332;9.458;2022-12-18T05:23:31;-10.70;84.70
21676;DHT22;10999;51.332;9.458;2022-12-18T05:26:00;-10.70;84.70
21676;DHT22;10999;51.332;9.458;2022-12-18T05:28:29;-10.70;84.50
21676;DHT22;10999;51.332;9.458;2022-12-18T05:31:01;-10.80;84.20
21676;DHT22;10999;51.332;9.458;2022-12-18T05:33:31;-10.80;84.00
21676;DHT22;10999;51.332;9.458;2022-12-18T05:36:00;-10.90;83.90
21676;DHT22;10999;51.332;9.458;2022-12-18T05:38:28;-10.90;83.90
21676;DHT22;10999;51.332;9.458;2022-12-18T05:40:55;-10.90;83.90
21676;DHT22;10999;51.332;9.458;2022-12-18T05:43:23;-10.90;83.90
21676;DHT22;10999;51.332;9.458;2022-12-18T05:45:50;-10.90;84.00
21676;DHT22;10999;51.332;9.458;2022-12-18T05:48:18;-10.90;84.00
21676;DHT22;10999;51.332;9.458;2022-12-18T05:50:45;-10.90;83.70
21676;DHT22;10999;51.332;9.458;2022-12-18T05:53:14;-11.00;83.50
21676;DHT22;10999;51.332;9.458;2022-12-18T05:55:42;-11.00;83.50
21676;DHT22;10999;51.332;9.458;2022-12-18T05:58:11;-11.00;83.50
21676;DHT22;10999;51.332;9.458;2022-12-18T06:00:44;-11.00;83.40
21676;DHT22;10999;51.332;9.458;2022-12-18T06:03:11;-11.10;83.40
21676;DHT22;10999;51.332;9.458;2022-12-18T06:05:41;-11.10;83.20
21676;DHT22;10999;51.332;9.458;2022-12-18T06:08:09;-11.10;83.30
21676;DHT22;10999;51.332;9.458;2022-12-18T06:10:36;-11.10;83.20
21676;DHT22;10999;51.332;9.458;2022-12-18T06:13:04;-11.10;83.30
21676;DHT22;10999;51.332;9.458;2022-12-18T06:15:30;-11.20;83.00
21676;DHT22;10999;51.332;9.458;2022-12-18T06:17:57;-11.20;82.90
21676;DHT22;10999;51.332;9.458;2022-12-18T06:20:24;-11.20;83.00
21676;DHT22;10999;51.332;9.458;2022-12-18T06:22:58;-11.20;83.00
21676;DHT22;10999;51.332;9.458;2022-12-18T06:25:25;-11.20;82.90
21676;DHT22;10999;51.332;9.458;2022-12-18T06:27:52;-11.20;82.90
21676;DHT22;10999;51.332;9.458;2022-12-18T06:30:19;-11.20;82.90
21676;DHT22;10999;51.332;9.458;2022-12-18T06:32:46;-11.30;82.90
21676;DHT22;10999;51.332;9.458;2022-12-18T06:35:21;-11.30;82.80
21676;DHT22;10999;51.332;9.458;2022-12-18T06:37:48;-11.30;82.70
21676;DHT22;10999;51.332;9.458;2022-12-18T06:40:16;-11.30;82.70
21676;DHT22;10999;51.332;9.458;2022-12-18T06:42:42;-11.30;82.60
21676;DHT22;10999;51.332;9.458;2022-12-18T06:45:09;-11.30;82.60
21676;DHT22;10999;51.332;9.458;2022-12-18T06:47:36;-11.40;83.00
21676;DHT22;10999;51.332;9.458;2022-12-18T06:50:03;-11.40;82.20
21676;DHT22;10999;51.332;9.458;2022-12-18T06:52:32;-11.40;82.20
21676;DHT22;10999;51.332;9.458;2022-12-18T06:54:59;-11.40;82.30
21676;DHT22;10999;51.332;9.458;2022-12-18T06:57:26;-11.40;82.20
21676;DHT22;10999;51.332;9.458;2022-12-18T06:59:52;-11.40;82.20
21676;DHT22;10999;51.332;9.458;2022-12-18T07:02:22;-11.50;82.00
21676;DHT22;10999;51.332;9.458;2022-12-18T07:04:50;-11.40;82.20
21676;DHT22;10999;51.332;9.458;2022-12-18T07:07:16;-11.40;82.20
21676;DHT22;10999;51.332;9.458;2022-12-18T07:09:43;-11.40;82.10
21676;DHT22;10999;51.332;9.458;2022-12-18T07:12:11;-11.50;82.10
21676;DHT22;10999;51.332;9.458;2022-12-18T07:14:39;-11.50;82.00
21676;DHT22;10999;51.332;9.458;2022-12-18T07:17:06;-11.50;81.80
21676;DHT22;10999;51.332;9.458;2022-12-18T07:19:33;-11.50;81.90
21676;DHT22;10999;51.332;9.458;2022-12-18T07:22:01;-11.50;81.90
21676;DHT22;10999;51.332;9.458;2022-12-18T07:24:28;-11.50;81.80
21676;DHT22;10999;51.332;9.458;2022-12-18T07:26:55;-11.50;81.70
21676;DHT22;10999;51.332;9.458;2022-12-18T07:29:25;-11.60;81.40
21676;DHT22;10999;51.332;9.458;2022-12-18T07:31:51;-11.60;81.30
21676;DHT22;10999;51.332;9.458;2022-12-18T07:34:18;-11.60;81.40
21676;DHT22;10999;51.332;9.458;2022-12-18T07:36:45;-11.60;81.60
21676;DHT22;10999;51.332;9.458;2022-12-18T07:39:12;-11.50;81.70
21676;DHT22;10999;51.332;9.458;2022-12-18T07:41:39;-11.50;81.70
21676;DHT22;10999;51.332;9.458;2022-12-18T07:44:12;-11.50;81.70
21676;DHT22;10999;51.332;9.458;2022-12-18T07:46:39;-11.50;81.70
21676;DHT22;10999;51.332;9.458;2022-12-18T07:49:06;-11.50;81.70
21676;DHT22;10999;51.332;9.458;2022-12-18T07:51:33;-11.50;81.70
21676;DHT22;10999;51.332;9.458;2022-12-18T07:53:59;-11.40;81.70
21676;DHT22;10999;51.332;9.458;2022-12-18T07:56:26;-11.40;81.80
21676;DHT22;10999;51.332;9.458;2022-12-18T07:58:58;-11.40;81.80
21676;DHT22;10999;51.332;9.458;2022-12-18T08:01:25;-11.40;81.80
21676;DHT22;10999;51.332;9.458;2022-12-18T08:03:52;-11.30;81.90
21676;DHT22;10999;51.332;9.458;2022-12-18T08:06:19;-11.30;82.00
21676;DHT22;10999;51.332;9.458;2022-12-18T08:08:53;-11.20;82.80
21676;DHT22;10999;51.332;9.458;2022-12-18T08:11:26;-11.20;82.20
21676;DHT22;10999;51.332;9.458;2022-12-18T08:13:53;-11.10;82.40
21676;DHT22;10999;51.332;9.458;2022-12-18T08:16:24;-11.10;82.50
21676;DHT22;10999;51.332;9.458;2022-12-18T08:18:52;-11.00;82.70
21676;DHT22;10999;51.332;9.458;2022-12-18T08:21:28;-11.00;82.80
21676;DHT22;10999;51.332;9.458;2022-12-18T08:23:57;-10.90;83.10
21676;DHT22;10999;51.332;9.458;2022-12-18T08:26:28;-10.80;83.10
21676;DHT22;10999;51.332;9.458;2022-12-18T08:28:57;-10.70;83.20
21676;DHT22;10999;51.332;9.458;2022-12-18T08:31:26;-10.70;83.30
21676;DHT22;10999;51.332;9.458;2022-12-18T08:33:54;-10.60;83.30
21676;DHT22;10999;51.332;9.458;2022-12-18T08:36:23;-10.50;83.40
21676;DHT22;10999;51.332;9.458;2022-12-18T08:38:51;-10.40;83.50
21676;DHT22;10999;51.332;9.458;2022-12-18T08:41:18;-10.40;83.60
21676;DHT22;10999;51.332;9.458;2022-12-18T08:43:45;-10.30;83.70
21676;DHT22;10999;51.332;9.458;2022-12-18T08:46:35;-10.30;83.90
21676;DHT22;10999;51.332;9.458;2022-12-18T08:49:03;-10.10;84.20
21676;DHT22;10999;51.332;9.458;2022-12-18T08:51:30;-10.10;84.40
21676;DHT22;10999;51.332;9.458;2022-12-18T08:53:57;-10.00;84.50
21676;DHT22;10999;51.332;9.458;2022-12-18T08:56:24;-9.90;84.70
21676;DHT22;10999;51.332;9.458;2022-12-18T08:58:54;-9.80;84.70
21676;DHT22;10999;51.332;9.458;2022-12-18T09:01:21;-9.70;84.70
21676;DHT22;10999;51.332;9.458;2022-12-18T09:03:49;-9.60;84.70
21676;DHT22;10999;51.332;9.458;2022-12-18T09:06:17;-9.60;84.70
21676;DHT22;10999;51.332;9.458;2022-12-18T09:08:44;-9.40;84.80
21676;DHT22;10999;51.332;9.458;2022-12-18T09:11:14;-9.40;84.90
21676;DHT22;10999;51.332;9.458;2022-12-18T09:13:41;-9.30;85.10
21676;DHT22;10999;51.332;9.458;2022-12-18T09:16:08;-9.20;85.30
21676;DHT22;10999;51.332;9.458;2022-12-18T09:18:35;-9.20;85.60
21676;DHT22;10999;51.332;9.458;2022-12-18T09:21:08;-9.00;85.80
21676;DHT22;10999;51.332;9.458;2022-12-18T09:23:35;-9.00;85.90
21676;DHT22;10999;51.332;9.458;2022-12-18T09:26:02;-8.80;86.20
21676;DHT22;10999;51.332;9.458;2022-12-18T09:28:29;-8.70;86.40
21676;DHT22;10999;51.332;9.458;2022-12-18T09:30:55;-8.70;86.60
21676;DHT22;10999;51.332;9.458;2022-12-18T09:33:22;-8.60;86.70
21676;DHT22;10999;51.332;9.458;2022-12-18T09:35:49;-8.50;86.40
21676;DHT22;10999;51.332;9.458;2022-12-18T09:38:18;-8.40;86.10
21676;DHT22;10999;51.332;9.458;2022-12-18T09:40:51;-8.20;86.10
21676;DHT22;10999;51.332;9.458;2022-12-18T09:43:34;-7.80;87.30
21676;DHT22;10999;51.332;9.458;2022-12-18T09:46:05;-7.00;86.70
21676;DHT22;10999;51.332;9.458;2022-12-18T09:48:36;-6.20;86.00
21676;DHT22;10999;51.332;9.458;2022-12-18T09:51:16;-5.80;82.00
21676;DHT22;10999;51.332;9.458;2022-12-18T09:53:49;-5.70;78.90
21676;DHT22;10999;51.332;9.458;2022-12-18T09:56:19;-5.70;76.70
21676;DHT22;10999;51.332;9.458;2022-12-18T09:58:57;-5.90;75.80
21676;DHT22;10999;51.332;9.458;2022-12-18T10:01:26;-5.90;75.70
21676;DHT22;10999;51.332;9.458;2022-12-18T10:04:08;-6.00;75.60
21676;DHT22;10999;51.332;9.458;2022-12-18T10:07:03;-6.20;75.10
21676;DHT22;10999;51.332;9.458;2022-12-18T10:09:39;-6.30;76.30
21676;DHT22;10999;51.332;9.458;2022-12-18T10:12:32;-6.10;77.50
21676;DHT22;10999;51.332;9.458;2022-12-18T10:15:05;-6.10;77.30
21676;DHT22;10999;51.332;9.458;2022-12-18T10:17:53;-5.90;79.90
21676;DHT22;10999;51.332;9.458;2022-12-18T10:20:38;-5.70;81.30
21676;DHT22;10999;51.332;9.458;2022-12-18T10:23:39;-5.50;81.20
21676;DHT22;10999;51.332;9.458;2022-12-18T10:26:13;-5.30;80.40
21676;DHT22;10999;51.332;9.458;2022-12-18T10:28:41;-5.20;79.20
21676;DHT22;10999;51.332;9.458;2022-12-18T10:31:20;-5.10;79.40
21676;DHT22;10999;51.332;9.458;2022-12-18T10:33:51;-5.10;78.00
21676;DHT22;10999;51.332;9.458;2022-12-18T10:36:22;-5.10;77.50
21676;DHT22;10999;51.332;9.458;2022-12-18T10:38:49;-5.20;76.70
21676;DHT22;10999;51.332;9.458;2022-12-18T10:43:49;-5.00;77.30
21676;DHT22;10999;51.332;9.458;2022-12-18T10:46:35;-4.90;77.20
21676;DHT22;10999;51.332;9.458;2022-12-18T10:49:02;-4.80;77.50
21676;DHT22;10999;51.332;9.458;2022-12-18T10:51:36;-4.80;77.30
21676;DHT22;10999;51.332;9.458;2022-12-18T10:54:05;-4.70;77.90
21676;DHT22;10999;51.332;9.458;2022-12-18T10:56:35;-4.70;76.50
21676;DHT22;10999;51.332;9.458;2022-12-18T10:59:08;-4.70;76.80
21676;DHT22;10999;51.332;9.458;2022-12-18T11:04:50;-4.60;76.30
21676;DHT22;10999;51.332;9.458;2022-12-18T11:07:18;-4.50;76.80
21676;DHT22;10999;51.332;9.458;2022-12-18T11:10:02;-4.50;76.90
21676;DHT22;10999;51.332;9.458;2022-12-18T11:12:29;-4.40;76.80
21676;DHT22;10999;51.332;9.458;2022-12-18T11:14:58;-4.40;76.80
21676;DHT22;10999;51.332;9.458;2022-12-18T11:17:32;-4.50;76.60
21676;DHT22;10999;51.332;9.458;2022-12-18T11:20:06;-4.50;76.80
21676;DHT22;10999;51.332;9.458;2022-12-18T11:22:35;-4.50;77.20
21676;DHT22;10999;51.332;9.458;2022-12-18T11:25:51;-4.60;76.10
21676;DHT22;10999;51.332;9.458;2022-12-18T11:28:02;-4.60;76.30
21676;DHT22;10999;51.332;9.458;2022-12-18T11:30:32;-4.70;76.30
21676;DHT22;10999;51.332;9.458;2022-12-18T11:33:23;-4.80;76.30
21676;DHT22;10999;51.332;9.458;2022-12-18T11:35:56;-4.80;76.50
21676;DHT22;10999;51.332;9.458;2022-12-18T11:38:32;-4.80;77.30
21676;DHT22;10999;51.332;9.458;2022-12-18T11:43:38;-4.80;78.50
21676;DHT22;10999;51.332;9.458;2022-12-18T11:46:13;-4.60;79.30
21676;DHT22;10999;51.332;9.458;2022-12-18T11:49:08;-4.60;80.10
21676;DHT22;10999;51.332;9.458;2022-12-18T11:51:43;-4.60;78.90
21676;DHT22;10999;51.332;9.458;2022-12-18T11:54:15;-4.50;78.40
21676;DHT22;10999;51.332;9.458;2022-12-18T11:57:07;-4.50;79.40
21676;DHT22;10999;51.332;9.458;2022-12-18T11:59:52;-4.40;78.90
21676;DHT22;10999;51.332;9.458;2022-12-18T12:02:33;-4.40;79.00
21676;DHT22;10999;51.332;9.458;2022-12-18T12:13:30;-4.20;80.10
21676;DHT22;10999;51.332;9.458;2022-12-18T12:21:26;-4.20;80.80
21676;DHT22;10999;51.332;9.458;2022-12-18T12:24:05;-4.10;81.20
21676;DHT22;10999;51.332;9.458;2022-12-18T12:32:12;-4.00;81.60
21676;DHT22;10999;51.332;9.458;2022-12-18T12:34:55;-3.90;82.00
21676;DHT22;10999;51.332;9.458;2022-12-18T12:40:22;-3.80;82.90
21676;DHT22;10999;51.332;9.458;2022-12-18T12:45:56;-3.50;83.40
21676;DHT22;10999;51.332;9.458;2022-12-18T12:48:49;-3.50;83.70
21676;DHT22;10999;51.332;9.458;2022-12-18T12:51:21;-3.50;83.40
21676;DHT22;10999;51.332;9.458;2022-12-18T12:53:48;-3.40;83.20
21676;DHT22;10999;51.332;9.458;2022-12-18T12:56:19;-3.40;83.20
21676;DHT22;10999;51.332;9.458;2022-12-18T12:59:04;-3.30;83.30
21676;DHT22;10999;51.332;9.458;2022-12-18T13:01:41;-3.30;83.20
21676;DHT22;10999;51.332;9.458;2022-12-18T13:04:41;-3.30;83.30
21676;DHT22;10999;51.332;9.458;2022-12-18T13:07:23;-3.30;84.10
21676;DHT22;10999;51.332;9.458;2022-12-18T13:12:58;-3.10;83.50
21676;DHT22;10999;51.332;9.458;2022-12-18T13:15:44;-3.10;83.40
21676;DHT22;10999;51.332;9.458;2022-12-18T13:18:16;-3.10;83.00
21676;DHT22;10999;51.332;9.458;2022-12-18T13:20:46;-3.10;82.30
21676;DHT22;10999;51.332;9.458;2022-12-18T13:25:59;-3.10;83.10
21676;DHT22;10999;51.332;9.458;2022-12-18T13:34:17;-3.10;83.30
21676;DHT22;10999;51.332;9.458;2022-12-18T13:36:55;-3.10;83.20
21676;DHT22;10999;51.332;9.458;2022-12-18T13:39:31;-3.10;83.20
21676;DHT22;10999;51.332;9.458;2022-12-18T13:44:34;-3.00;83.10
21676;DHT22;10999;51.332;9.458;2022-12-18T13:47:26;-3.00;83.30
21676;DHT22;10999;51.332;9.458;2022-12-18T13:49:54;-3.00;83.40
21676;DHT22;10999;51.332;9.458;2022-12-18T13:52:26;-3.00;83.50
21676;DHT22;10999;51.332;9.458;2022-12-18T13:54:56;-3.00;83.60
21676;DHT22;10999;51.332;9.458;2022-12-18T13:57:27;-3.00;83.80
21676;DHT22;10999;51.332;9.458;2022-12-18T13:59:56;-3.00;83.80
21676;DHT22;10999;51.332;9.458;2022-12-18T14:02:28;-3.00;83.80
21676;DHT22;10999;51.332;9.458;2022-12-18T14:04:55;-3.10;84.00
21676;DHT22;10999;51.332;9.458;2022-12-18T14:07:24;-3.10;84.10
21676;DHT22;10999;51.332;9.458;2022-12-18T14:09:58;-3.10;84.50
21676;DHT22;10999;51.332;9.458;2022-12-18T14:12:48;-3.10;84.80
21676;DHT22;10999;51.332;9.458;2022-12-18T14:15:32;-3.10;84.90
21676;DHT22;10999;51.332;9.458;2022-12-18T14:18:26;-3.10;85.10
21676;DHT22;10999;51.332;9.458;2022-12-18T14:20:58;-3.20;85.20
21676;DHT22;10999;51.332;9.458;2022-12-18T14:25:55;-3.20;85.40
21676;DHT22;10999;51.332;9.458;2022-12-18T14:28:29;-3.20;85.60
21676;DHT22;10999;51.332;9.458;2022-12-18T14:30:56;-3.30;85.90
21676;DHT22;10999;51.332;9.458;2022-12-18T14:33:27;-3.30;86.30
21676;DHT22;10999;51.332;9.458;2022-12-18T14:38:34;-3.30;86.40
21676;DHT22;10999;51.332;9.458;2022-12-18T14:41:18;-3.30;86.20
21676;DHT22;10999;51.332;9.458;2022-12-18T14:43:47;-3.30;86.10
21676;DHT22;10999;51.332;9.458;2022-12-18T14:46:34;-3.30;85.90
21676;DHT22;10999;51.332;9.458;2022-12-18T14:49:04;-3.30;86.00
21676;DHT22;10999;51.332;9.458;2022-12-18T14:51:33;-3.30;86.00
21676;DHT22;10999;51.332;9.458;2022-12-18T14:54:03;-3.30;86.20
21676;DHT22;10999;51.332;9.458;2022-12-18T14:56:51;-3.30;86.20
21676;DHT22;10999;51.332;9.458;2022-12-18T14:59:23;-3.30;86.50
21676;DHT22;10999;51.332;9.458;2022-12-18T15:04:36;-3.10;85.20
21676;DHT22;10999;51.332;9.458;2022-12-18T15:09:38;-3.00;84.30
21676;DHT22;10999;51.332;9.458;2022-12-18T15:12:05;-3.10;84.40
21676;DHT22;10999;51.332;9.458;2022-12-18T15:14:50;-3.10;83.90
21676;DHT22;10999;51.332;9.458;2022-12-18T15:17:21;-3.10;83.70
21676;DHT22;10999;51.332;9.458;2022-12-18T15:19:52;-3.10;83.20
21676;DHT22;10999;51.332;9.458;2022-12-18T15:22:24;-3.10;82.80
21676;DHT22;10999;51.332;9.458;2022-12-18T15:24:51;-3.10;83.10
21676;DHT22;10999;51.332;9.458;2022-12-18T15:32:36;-3.10;82.20
21676;DHT22;10999;51.332;9.458;2022-12-18T15:37:42;-3.20;82.10
21676;DHT22;10999;51.332;9.458;2022-12-18T15:40:19;-3.20;82.10
21676;DHT22;10999;51.332;9.458;2022-12-18T15:42:47;-3.20;81.90
21676;DHT22;10999;51.332;9.458;2022-12-18T15:45:32;-3.30;81.80
21676;DHT22;10999;51.332;9.458;2022-12-18T15:47:59;-3.30;82.20
21676;DHT22;10999;51.332;9.458;2022-12-18T15:50:26;-3.30;82.00
21676;DHT22;10999;51.332;9.458;2022-12-18T15:52:54;-3.30;81.30
21676;DHT22;10999;51.332;9.458;2022-12-18T15:55:23;-3.30;81.20
21676;DHT22;10999;51.332;9.458;2022-12-18T15:58:09;-3.30;80.70
21676;DHT22;10999;51.332;9.458;2022-12-18T16:00:39;-3.40;80.70
21676;DHT22;10999;51.332;9.458;2022-12-18T16:03:06;-3.40;81.00
21676;DHT22;10999;51.332;9.458;2022-12-18T16:05:33;-3.40;80.90
21676;DHT22;10999;51.332;9.458;2022-12-18T16:07:59;-3.50;80.90
21676;DHT22;10999;51.332;9.458;2022-12-18T16:10:26;-3.50;81.00
21676;DHT22;10999;51.332;9.458;2022-12-18T16:12:53;-3.50;81.00
21676;DHT22;10999;51.332;9.458;2022-12-18T16:15:20;-3.50;81.30
21676;DHT22;10999;51.332;9.458;2022-12-18T16:17:50;-3.50;81.10
21676;DHT22;10999;51.332;9.458;2022-12-18T16:20:20;-3.50;81.60
21676;DHT22;10999;51.332;9.458;2022-12-18T16:22:48;-3.60;81.50
21676;DHT22;10999;51.332;9.458;2022-12-18T16:27:44;-3.60;81.40
21676;DHT22;10999;51.332;9.458;2022-12-18T16:30:16;-3.60;81.20
21676;DHT22;10999;51.332;9.458;2022-12-18T16:32:43;-3.60;81.10
21676;DHT22;10999;51.332;9.458;2022-12-18T16:35:14;-3.60;81.30
21676;DHT22;10999;51.332;9.458;2022-12-18T16:37:41;-3.60;82.10
21676;DHT22;10999;51.332;9.458;2022-12-18T16:40:11;-3.60;81.50
21676;DHT22;10999;51.332;9.458;2022-12-18T16:42:39;-3.60;81.80
21676;DHT22;10999;51.332;9.458;2022-12-18T16:45:08;-3.60;81.70
21676;DHT22;10999;51.332;9.458;2022-12-18T16:47:35;-3.60;81.60
21676;DHT22;10999;51.332;9.458;2022-12-18T16:50:02;-3.70;81.30
21676;DHT22;10999;51.332;9.458;2022-12-18T16:52:29;-3.70;81.90
21676;DHT22;10999;51.332;9.458;2022-12-18T16:54:56;-3.70;82.30
21676;DHT22;10999;51.332;9.458;2022-12-18T16:57:23;-3.70;82.30
21676;DHT22;10999;51.332;9.458;2022-12-18T17:02:43;-3.70;82.00
21676;DHT22;10999;51.332;9.458;2022-12-18T17:05:10;-3.70;82.30
21676;DHT22;10999;51.332;9.458;2022-12-18T17:07:37;-3.80;82.70
21676;DHT22;10999;51.332;9.458;2022-12-18T17:10:04;-3.80;83.30
21676;DHT22;10999;51.332;9.458;2022-12-18T17:12:31;-3.80;83.10
21676;DHT22;10999;51.332;9.458;2022-12-18T17:14:57;-3.80;83.20
21676;DHT22;10999;51.332;9.458;2022-12-18T17:17:24;-3.80;83.30
21676;DHT22;10999;51.332;9.458;2022-12-18T17:19:51;-3.80;82.90
21676;DHT22;10999;51.332;9.458;2022-12-18T17:22:19;-3.80;82.90
21676;DHT22;10999;51.332;9.458;2022-12-18T17:24:46;-3.80;83.30
21676;DHT22;10999;51.332;9.458;2022-12-18T17:27:13;-3.80;83.60
21676;DHT22;10999;51.332;9.458;2022-12-18T17:29:40;-3.80;84.10